createdAt,value
2018-07-08T00:01:01.878Z,1021.99
2018-07-08T00:02:29.514Z,1022.00
2018-07-08T00:03:56.845Z,1021.99
2018-07-08T00:05:24.017Z,1022.01
2018-07-08T00:06:51.332Z,1021.99
2018-07-08T00:08:18.991Z,1021.97
2018-07-08T00:09:46.279Z,1021.97
2018-07-08T00:11:13.720Z,1021.97
2018-07-08T00:12:41.129Z,1021.98
2018-07-08T00:14:08.404Z,1021.96
2018-07-08T00:15:35.584Z,1021.96
2018-07-08T00:17:03.064Z,1021.95
2018-07-08T00:18:30.268Z,1021.96
2018-07-08T00:19:57.608Z,1021.95
2018-07-08T00:21:25.168Z,1021.95
2018-07-08T00:22:52.633Z,1021.94
2018-07-08T00:24:19.668Z,1021.91
2018-07-08T00:25:47.064Z,1021.93
2018-07-08T00:27:14.190Z,1021.95
2018-07-08T00:28:41.743Z,1021.97
2018-07-08T00:30:09.220Z,1022.00
2018-07-08T00:31:36.521Z,1022.00
2018-07-08T00:33:04.101Z,1022.01
2018-07-08T00:34:31.608Z,1021.97
2018-07-08T00:35:58.930Z,1021.97
2018-07-08T00:37:26.495Z,1021.96
2018-07-08T00:38:53.996Z,1021.98
2018-07-08T00:40:21.110Z,1021.98
2018-07-08T00:41:48.542Z,1021.98
2018-07-08T00:43:15.891Z,1021.97
2018-07-08T00:44:43.323Z,1021.98
2018-07-08T00:46:10.628Z,1021.98
2018-07-08T00:47:37.969Z,1021.98
2018-07-08T00:49:05.263Z,1021.99
2018-07-08T00:50:32.789Z,1022.01
2018-07-08T00:52:00.083Z,1022.02
2018-07-08T00:53:27.337Z,1022.03
2018-07-08T00:54:54.189Z,1022.06
2018-07-08T00:56:21.636Z,1022.05
2018-07-08T00:57:48.943Z,1022.02
2018-07-08T00:59:16.267Z,1022.01
2018-07-08T01:00:43.680Z,1022.03
2018-07-08T01:02:11.208Z,1022.03
2018-07-08T01:03:38.655Z,1022.02
2018-07-08T01:05:06.093Z,1022.07
2018-07-08T01:06:33.205Z,1022.05
2018-07-08T01:08:00.794Z,1022.06
2018-07-08T01:09:28.326Z,1022.05
2018-07-08T01:10:56.505Z,1022.04
2018-07-08T01:12:23.101Z,1022.02
2018-07-08T01:13:50.369Z,1022.04
2018-07-08T01:15:17.534Z,1022.03
2018-07-08T01:16:44.810Z,1022.02
2018-07-08T01:18:12.209Z,1022.03
2018-07-08T01:19:39.294Z,1022.02
2018-07-08T01:21:06.649Z,1021.98
2018-07-08T01:22:33.978Z,1021.97
2018-07-08T01:24:01.152Z,1021.94
2018-07-08T01:25:28.589Z,1021.95
2018-07-08T01:26:55.819Z,1021.96
2018-07-08T01:28:23.313Z,1021.96
2018-07-08T01:29:50.895Z,1021.97
2018-07-08T01:31:18.459Z,1022.01
2018-07-08T01:32:45.564Z,1022.03
2018-07-08T01:34:12.834Z,1022.04
2018-07-08T01:35:40.115Z,1022.03
2018-07-08T01:37:07.536Z,1022.03
2018-07-08T01:38:35.144Z,1022.03
2018-07-08T01:40:02.306Z,1022.03
2018-07-08T01:41:29.769Z,1022.03
2018-07-08T01:42:57.255Z,1022.05
2018-07-08T01:44:24.846Z,1022.05
2018-07-08T01:45:52.120Z,1022.05
2018-07-08T01:47:19.654Z,1022.07
2018-07-08T01:48:46.780Z,1022.08
2018-07-08T01:50:14.090Z,1022.05
2018-07-08T01:51:41.620Z,1022.07
2018-07-08T01:53:08.837Z,1022.10
2018-07-08T01:54:36.223Z,1022.10
2018-07-08T01:56:03.768Z,1022.08
2018-07-08T01:57:31.005Z,1022.04
2018-07-08T01:58:58.438Z,1022.07
2018-07-08T02:00:26.032Z,1022.07
2018-07-08T02:01:53.221Z,1022.09
2018-07-08T02:03:20.689Z,1022.11
2018-07-08T02:04:48.223Z,1022.12
2018-07-08T02:06:15.551Z,1022.12
2018-07-08T02:07:42.986Z,1022.13
2018-07-08T02:09:10.501Z,1022.15
2018-07-08T02:10:37.885Z,1022.15
2018-07-08T02:12:05.380Z,1022.18
2018-07-08T02:13:32.780Z,1022.18
2018-07-08T02:15:00.120Z,1022.17
2018-07-08T02:16:27.791Z,1022.16
2018-07-08T02:17:54.955Z,1022.17
2018-07-08T02:19:22.268Z,1022.16
2018-07-08T02:20:49.921Z,1022.13
2018-07-08T02:22:17.298Z,1022.12
2018-07-08T02:23:44.709Z,1022.14
2018-07-08T02:25:11.813Z,1022.12
2018-07-08T02:26:39.051Z,1022.15
2018-07-08T02:28:06.552Z,1022.18
2018-07-08T02:29:34.121Z,1022.18
2018-07-08T02:31:01.553Z,1022.17
2018-07-08T02:32:28.831Z,1022.15
2018-07-08T02:33:56.300Z,1022.17
2018-07-08T02:35:23.676Z,1022.19
2018-07-08T02:36:51.493Z,1022.17
2018-07-08T02:38:18.397Z,1022.14
2018-07-08T02:39:45.791Z,1022.18
2018-07-08T02:41:13.290Z,1022.15
2018-07-08T02:42:40.932Z,1022.13
2018-07-08T02:44:08.218Z,1022.17
2018-07-08T02:45:35.239Z,1022.19
2018-07-08T02:47:02.588Z,1022.19
2018-07-08T02:48:30.956Z,1022.19
2018-07-08T02:49:57.297Z,1022.18
2018-07-08T02:51:24.607Z,1022.18
2018-07-08T02:52:52.154Z,1022.22
2018-07-08T02:54:19.336Z,1022.24
2018-07-08T02:55:46.809Z,1022.24
2018-07-08T02:57:14.355Z,1022.24
2018-07-08T02:58:41.804Z,1022.26
2018-07-08T03:00:08.998Z,1022.27
2018-07-08T03:01:36.537Z,1022.24
2018-07-08T03:03:03.984Z,1022.23
2018-07-08T03:04:30.780Z,1022.23
2018-07-08T03:05:58.194Z,1022.26
2018-07-08T03:07:25.532Z,1022.24
2018-07-08T03:08:52.724Z,1022.24
2018-07-08T03:10:20.183Z,1022.23
2018-07-08T03:11:47.510Z,1022.21
2018-07-08T03:13:14.689Z,1022.24
2018-07-08T03:14:42.144Z,1022.25
2018-07-08T03:16:09.603Z,1022.24
2018-07-08T03:17:36.737Z,1022.25
2018-07-08T03:19:04.225Z,1022.26
2018-07-08T03:20:31.491Z,1022.27
2018-07-08T03:21:58.746Z,1022.28
2018-07-08T03:23:26.128Z,1022.29
2018-07-08T03:24:53.725Z,1022.28
2018-07-08T03:26:20.850Z,1022.30
2018-07-08T03:27:48.110Z,1022.31
2018-07-08T03:29:15.743Z,1022.31
2018-07-08T03:30:43.028Z,1022.30
2018-07-08T03:32:10.394Z,1022.32
2018-07-08T03:33:37.858Z,1022.34
2018-07-08T03:35:05.191Z,1022.37
2018-07-08T03:36:32.496Z,1022.37
2018-07-08T03:37:59.822Z,1022.38
2018-07-08T03:39:27.018Z,1022.37
2018-07-08T03:40:54.326Z,1022.35
2018-07-08T03:42:21.768Z,1022.38
2018-07-08T03:43:49.355Z,1022.37
2018-07-08T03:45:16.701Z,1022.37
2018-07-08T03:46:44.227Z,1022.38
2018-07-08T03:48:11.739Z,1022.36
2018-07-08T03:49:38.889Z,1022.36
2018-07-08T03:51:06.137Z,1022.38
2018-07-08T03:52:33.598Z,1022.37
2018-07-08T03:54:01.077Z,1022.40
2018-07-08T03:55:28.733Z,1022.41
2018-07-08T03:56:56.053Z,1022.39
2018-07-08T03:58:23.453Z,1022.40
2018-07-08T03:59:50.173Z,1022.40
2018-07-08T04:01:17.522Z,1022.40
2018-07-08T04:02:44.938Z,1022.43
2018-07-08T04:04:12.030Z,1022.43
2018-07-08T04:05:39.582Z,1022.44
2018-07-08T04:07:06.865Z,1022.45
2018-07-08T04:08:34.346Z,1022.44
2018-07-08T04:10:01.508Z,1022.46
2018-07-08T04:11:28.645Z,1022.46
2018-07-08T04:12:56.233Z,1022.47
2018-07-08T04:14:23.581Z,1022.46
2018-07-08T04:15:51.018Z,1022.49
2018-07-08T04:17:18.445Z,1022.50
2018-07-08T04:18:45.719Z,1022.50
2018-07-08T04:20:13.191Z,1022.53
2018-07-08T04:21:40.215Z,1022.54
2018-07-08T04:23:07.590Z,1022.57
2018-07-08T04:24:34.824Z,1022.58
2018-07-08T04:26:02.184Z,1022.60
2018-07-08T04:27:29.520Z,1022.59
2018-07-08T04:28:56.951Z,1022.60
2018-07-08T04:30:24.143Z,1022.60
2018-07-08T04:31:51.410Z,1022.60
2018-07-08T04:33:18.816Z,1022.59
2018-07-08T04:34:46.435Z,1022.59
2018-07-08T04:36:13.944Z,1022.59
2018-07-08T04:37:41.463Z,1022.60
2018-07-08T04:39:08.630Z,1022.59
2018-07-08T04:40:35.831Z,1022.57
2018-07-08T04:42:03.383Z,1022.58
2018-07-08T04:43:30.692Z,1022.55
2018-07-08T04:44:58.087Z,1022.57
2018-07-08T04:46:25.168Z,1022.56
2018-07-08T04:47:52.757Z,1022.56
2018-07-08T04:49:20.026Z,1022.56
2018-07-08T04:50:47.447Z,1022.57
2018-07-08T04:52:14.799Z,1022.58
2018-07-08T04:53:42.120Z,1022.59
2018-07-08T04:55:09.449Z,1022.62
2018-07-08T04:56:36.698Z,1022.63
2018-07-08T04:58:04.353Z,1022.62
2018-07-08T04:59:31.820Z,1022.63
2018-07-08T05:00:59.471Z,1022.65
2018-07-08T05:02:27.046Z,1022.68
2018-07-08T05:03:54.591Z,1022.69
2018-07-08T05:05:21.580Z,1022.68
2018-07-08T05:06:48.852Z,1022.70
2018-07-08T05:08:15.860Z,1022.68
2018-07-08T05:09:43.290Z,1022.67
2018-07-08T05:11:10.867Z,1022.70
2018-07-08T05:12:38.008Z,1022.69
2018-07-08T05:14:05.309Z,1022.67
2018-07-08T05:15:32.640Z,1022.67
2018-07-08T05:17:00.083Z,1022.67
2018-07-08T05:18:27.397Z,1022.67
2018-07-08T05:19:54.765Z,1022.66
2018-07-08T05:21:22.155Z,1022.69
2018-07-08T05:22:49.800Z,1022.68
2018-07-08T05:24:17.937Z,1022.67
2018-07-08T05:25:44.230Z,1022.68
2018-07-08T05:27:11.716Z,1022.68
2018-07-08T05:28:38.982Z,1022.71
2018-07-08T05:30:06.484Z,1022.70
2018-07-08T05:31:33.926Z,1022.72
2018-07-08T05:33:01.331Z,1022.73
2018-07-08T05:34:28.652Z,1022.76
2018-07-08T05:35:55.957Z,1022.78
2018-07-08T05:37:23.547Z,1022.78
2018-07-08T05:38:51.001Z,1022.78
2018-07-08T05:40:18.407Z,1022.83
2018-07-08T05:41:45.393Z,1022.83
2018-07-08T05:43:12.811Z,1022.85
2018-07-08T05:44:39.669Z,1022.85
2018-07-08T05:46:06.911Z,1022.87
2018-07-08T05:47:34.309Z,1022.84
2018-07-08T05:49:01.619Z,1022.85
2018-07-08T05:50:28.981Z,1022.84
2018-07-08T05:51:55.944Z,1022.84
2018-07-08T05:53:23.491Z,1022.86
2018-07-08T05:54:50.558Z,1022.85
2018-07-08T05:56:17.956Z,1022.86
2018-07-08T05:57:45.278Z,1022.89
2018-07-08T05:59:12.596Z,1022.91
2018-07-08T06:00:40.055Z,1022.92
2018-07-08T06:02:07.242Z,1022.93
2018-07-08T06:03:34.658Z,1022.90
2018-07-08T06:05:01.849Z,1022.92
2018-07-08T06:06:29.243Z,1022.92
2018-07-08T06:07:56.503Z,1022.91
2018-07-08T06:09:23.601Z,1022.92
2018-07-08T06:10:51.098Z,1022.93
2018-07-08T06:12:17.956Z,1022.93
2018-07-08T06:13:45.595Z,1022.92
2018-07-08T06:15:13.113Z,1022.92
2018-07-08T06:16:40.280Z,1022.93
2018-07-08T06:18:07.209Z,1022.97
2018-07-08T06:19:34.240Z,1022.96
2018-07-08T06:21:01.769Z,1022.95
2018-07-08T06:22:29.094Z,1022.96
2018-07-08T06:23:55.994Z,1022.98
2018-07-08T06:25:23.256Z,1022.98
2018-07-08T06:26:51.929Z,1023.01
2018-07-08T06:28:17.918Z,1023.01
2018-07-08T06:29:45.711Z,1023.00
2018-07-08T06:31:13.051Z,1022.97
2018-07-08T06:32:40.652Z,1022.99
2018-07-08T06:34:07.284Z,1022.99
2018-07-08T06:35:34.015Z,1023.00
2018-07-08T06:37:01.485Z,1023.01
2018-07-08T06:38:28.142Z,1023.03
2018-07-08T06:39:55.577Z,1023.02
2018-07-08T06:41:22.806Z,1023.02
2018-07-08T06:42:50.061Z,1023.04
2018-07-08T06:44:17.138Z,1023.03
2018-07-08T06:45:44.689Z,1023.04
2018-07-08T06:47:11.648Z,1023.06
2018-07-08T06:48:38.652Z,1023.07
2018-07-08T06:50:08.725Z,1023.07
2018-07-08T06:51:32.399Z,1023.07
2018-07-08T06:52:59.982Z,1023.07
2018-07-08T06:54:27.405Z,1023.09
2018-07-08T06:55:54.624Z,1023.10
2018-07-08T06:57:22.167Z,1023.08
2018-07-08T06:58:49.584Z,1023.07
2018-07-08T07:00:16.959Z,1023.12
2018-07-08T07:01:44.085Z,1023.10
2018-07-08T07:03:10.971Z,1023.12
2018-07-08T07:04:38.337Z,1023.11
2018-07-08T07:06:05.627Z,1023.09
2018-07-08T07:07:33.087Z,1023.11
2018-07-08T07:09:00.681Z,1023.07
2018-07-08T07:10:28.043Z,1023.11
2018-07-08T07:11:55.409Z,1023.07
2018-07-08T07:13:22.971Z,1023.06
2018-07-08T07:14:50.520Z,1023.04
2018-07-08T07:16:17.611Z,1023.04
2018-07-08T07:17:44.731Z,1023.06
2018-07-08T07:19:12.333Z,1023.09
2018-07-08T07:20:39.422Z,1023.09
2018-07-08T07:22:06.776Z,1023.10
2018-07-08T07:23:34.466Z,1023.07
2018-07-08T07:25:01.445Z,1023.10
2018-07-08T07:26:28.686Z,1023.11
2018-07-08T07:27:56.224Z,1023.11
2018-07-08T07:29:23.661Z,1023.11
2018-07-08T07:30:51.093Z,1023.12
2018-07-08T07:32:18.432Z,1023.09
2018-07-08T07:33:45.793Z,1023.11
2018-07-08T07:35:13.181Z,1023.13
2018-07-08T07:36:40.612Z,1023.13
2018-07-08T07:38:08.068Z,1023.13
2018-07-08T07:39:35.173Z,1023.13
2018-07-08T07:41:01.890Z,1023.17
2018-07-08T07:42:29.400Z,1023.16
2018-07-08T07:43:56.373Z,1023.19
2018-07-08T07:45:23.744Z,1023.20
2018-07-08T07:46:51.113Z,1023.22
2018-07-08T07:48:18.336Z,1023.25
2018-07-08T07:49:45.706Z,1023.27
2018-07-08T07:51:13.314Z,1023.27
2018-07-08T07:52:40.506Z,1023.27
2018-07-08T07:54:07.881Z,1023.28
2018-07-08T07:55:35.149Z,1023.29
2018-07-08T07:57:02.514Z,1023.32
2018-07-08T07:58:30.078Z,1023.30
2018-07-08T07:59:57.693Z,1023.32
2018-07-08T08:01:24.747Z,1023.31
2018-07-08T08:02:55.059Z,1023.33
2018-07-08T08:04:19.426Z,1023.35
2018-07-08T08:05:46.552Z,1023.34
2018-07-08T08:07:13.607Z,1023.36
2018-07-08T08:08:40.841Z,1023.37
2018-07-08T08:10:08.297Z,1023.40
2018-07-08T08:11:35.645Z,1023.39
2018-07-08T08:13:03.437Z,1023.40
2018-07-08T08:14:30.645Z,1023.45
2018-07-08T08:15:58.174Z,1023.45
2018-07-08T08:17:25.523Z,1023.45
2018-07-08T08:18:53.085Z,1023.45
2018-07-08T08:20:20.110Z,1023.46
2018-07-08T08:21:47.659Z,1023.46
2018-07-08T08:23:14.917Z,1023.44
2018-07-08T08:24:42.522Z,1023.48
2018-07-08T08:26:09.659Z,1023.48
2018-07-08T08:27:37.263Z,1023.49
2018-07-08T08:29:04.542Z,1023.47
2018-07-08T08:30:32.117Z,1023.50
2018-07-08T08:31:59.219Z,1023.48
2018-07-08T08:33:26.826Z,1023.51
2018-07-08T08:34:54.188Z,1023.49
2018-07-08T08:36:21.581Z,1023.52
2018-07-08T08:37:49.086Z,1023.53
2018-07-08T08:39:16.292Z,1023.58
2018-07-08T08:40:44.016Z,1023.56
2018-07-08T08:42:11.594Z,1023.55
2018-07-08T08:43:39.184Z,1023.55
2018-07-08T08:45:06.794Z,1023.57
2018-07-08T08:46:34.324Z,1023.59
2018-07-08T08:48:01.757Z,1023.59
2018-07-08T08:49:29.326Z,1023.59
2018-07-08T08:50:56.750Z,1023.60
2018-07-08T08:52:24.277Z,1023.62
2018-07-08T08:53:51.671Z,1023.61
2018-07-08T08:55:19.225Z,1023.64
2018-07-08T08:56:46.706Z,1023.61
2018-07-08T08:58:13.941Z,1023.57
2018-07-08T08:59:41.512Z,1023.55
2018-07-08T09:01:08.498Z,1023.55
2018-07-08T09:02:35.633Z,1023.52
2018-07-08T09:04:02.939Z,1023.51
2018-07-08T09:05:30.314Z,1023.47
2018-07-08T09:06:57.954Z,1023.48
2018-07-08T09:08:25.571Z,1023.47
2018-07-08T09:09:53.040Z,1023.46
2018-07-08T09:11:20.358Z,1023.48
2018-07-08T09:12:47.930Z,1023.49
2018-07-08T09:14:15.435Z,1023.49
2018-07-08T09:15:42.900Z,1023.51
2018-07-08T09:17:10.036Z,1023.52
2018-07-08T09:18:37.512Z,1023.48
2018-07-08T09:20:04.831Z,1023.52
2018-07-08T09:21:32.149Z,1023.54
2018-07-08T09:22:59.619Z,1023.52
2018-07-08T09:24:27.088Z,1023.53
2018-07-08T09:25:54.837Z,1023.52
2018-07-08T09:27:22.321Z,1023.51
2018-07-08T09:28:49.932Z,1023.52
2018-07-08T09:30:17.520Z,1023.51
2018-07-08T09:31:44.685Z,1023.52
2018-07-08T09:33:11.838Z,1023.53
2018-07-08T09:34:39.421Z,1023.55
2018-07-08T09:36:06.872Z,1023.56
2018-07-08T09:37:34.298Z,1023.55
2018-07-08T09:39:02.008Z,1023.56
2018-07-08T09:40:29.435Z,1023.60
2018-07-08T09:41:57.298Z,1023.62
2018-07-08T09:43:24.643Z,1023.60
2018-07-08T09:44:52.318Z,1023.60
2018-07-08T09:46:19.637Z,1023.63
2018-07-08T09:47:46.988Z,1023.67
2018-07-08T09:49:14.309Z,1023.65
2018-07-08T09:50:41.694Z,1023.68
2018-07-08T09:52:09.324Z,1023.69
2018-07-08T09:53:36.674Z,1023.73
2018-07-08T09:55:03.802Z,1023.77
2018-07-08T09:56:31.213Z,1023.73
2018-07-08T09:57:58.527Z,1023.77
2018-07-08T09:59:25.870Z,1023.76
2018-07-08T10:00:53.331Z,1023.76
2018-07-08T10:02:20.792Z,1023.78
2018-07-08T10:03:48.260Z,1023.83
2018-07-08T10:05:15.974Z,1023.80
2018-07-08T10:06:43.289Z,1023.77
2018-07-08T10:08:10.683Z,1023.74
2018-07-08T10:09:37.796Z,1023.73
2018-07-08T10:11:05.406Z,1023.71
2018-07-08T10:12:32.980Z,1023.70
2018-07-08T10:14:00.595Z,1023.73
2018-07-08T10:15:27.999Z,1023.73
2018-07-08T10:16:55.367Z,1023.71
2018-07-08T10:18:23.020Z,1023.75
2018-07-08T10:19:50.527Z,1023.74
2018-07-08T10:21:17.670Z,1023.73
2018-07-08T10:22:45.096Z,1023.69
2018-07-08T10:24:12.633Z,1023.70
2018-07-08T10:25:40.198Z,1023.70
2018-07-08T10:27:07.839Z,1023.71
2018-07-08T10:28:35.117Z,1023.71
2018-07-08T10:30:02.866Z,1023.68
2018-07-08T10:31:30.385Z,1023.69
2018-07-08T10:32:57.916Z,1023.68
2018-07-08T10:34:25.641Z,1023.68
2018-07-08T10:35:53.163Z,1023.65
2018-07-08T10:37:20.432Z,1023.65
2018-07-08T10:38:48.250Z,1023.64
2018-07-08T10:40:15.560Z,1023.67
2018-07-08T10:41:42.938Z,1023.62
2018-07-08T10:43:10.504Z,1023.60
2018-07-08T10:44:38.112Z,1023.58
2018-07-08T10:46:05.644Z,1023.56
2018-07-08T10:47:32.901Z,1023.59
2018-07-08T10:49:00.299Z,1023.53
2018-07-08T10:50:27.873Z,1023.53
2018-07-08T10:51:55.302Z,1023.54
2018-07-08T10:53:22.808Z,1023.54
2018-07-08T10:54:50.395Z,1023.48
2018-07-08T10:56:17.808Z,1023.50
2018-07-08T10:57:45.286Z,1023.51
2018-07-08T10:59:12.659Z,1023.48
2018-07-08T11:00:40.443Z,1023.49
2018-07-08T11:02:08.244Z,1023.45
2018-07-08T11:03:35.653Z,1023.42
2018-07-08T11:05:03.123Z,1023.48
2018-07-08T11:06:30.696Z,1023.45
2018-07-08T11:07:58.373Z,1023.45
2018-07-08T11:09:26.128Z,1023.44
2018-07-08T11:10:53.704Z,1023.45
2018-07-08T11:12:21.328Z,1023.47
2018-07-08T11:13:48.813Z,1023.45
2018-07-08T11:15:16.374Z,1023.42
2018-07-08T11:16:43.828Z,1023.46
2018-07-08T11:18:11.296Z,1023.42
2018-07-08T11:19:39.046Z,1023.42
2018-07-08T11:21:06.512Z,1023.38
2018-07-08T11:22:34.162Z,1023.36
2018-07-08T11:24:01.613Z,1023.33
2018-07-08T11:25:29.237Z,1023.32
2018-07-08T11:26:56.775Z,1023.33
2018-07-08T11:28:24.345Z,1023.33
2018-07-08T11:29:52.292Z,1023.34
2018-07-08T11:31:19.792Z,1023.28
2018-07-08T11:32:47.469Z,1023.28
2018-07-08T11:34:15.071Z,1023.26
2018-07-08T11:35:42.526Z,1023.33
2018-07-08T11:37:10.235Z,1023.26
2018-07-08T11:38:37.434Z,1023.24
2018-07-08T11:40:04.906Z,1023.22
2018-07-08T11:41:32.614Z,1023.17
2018-07-08T11:43:00.297Z,1023.24
2018-07-08T11:44:27.750Z,1023.22
2018-07-08T11:45:55.382Z,1023.19
2018-07-08T11:47:22.937Z,1023.18
2018-07-08T11:48:50.619Z,1023.17
2018-07-08T11:50:18.234Z,1023.14
2018-07-08T11:51:45.807Z,1023.14
2018-07-08T11:53:13.439Z,1023.14
2018-07-08T11:54:41.195Z,1023.14
2018-07-08T11:56:08.780Z,1023.18
2018-07-08T11:57:36.587Z,1023.19
2018-07-08T11:59:04.137Z,1023.16
2018-07-08T12:00:32.899Z,1023.17
2018-07-08T12:01:59.007Z,1023.15
2018-07-08T12:03:26.660Z,1023.11
2018-07-08T12:04:54.307Z,1023.14
2018-07-08T12:06:22.101Z,1023.14
2018-07-08T12:07:49.563Z,1023.15
2018-07-08T12:09:17.261Z,1023.15
2018-07-08T12:10:44.632Z,1023.11
2018-07-08T12:12:12.276Z,1023.09
2018-07-08T12:13:39.839Z,1023.12
2018-07-08T12:15:07.427Z,1023.14
2018-07-08T12:16:35.091Z,1023.17
2018-07-08T12:18:02.625Z,1023.10
2018-07-08T12:19:30.224Z,1023.16
2018-07-08T12:20:57.909Z,1023.09
2018-07-08T12:22:25.493Z,1023.10
2018-07-08T12:23:53.132Z,1023.17
2018-07-08T12:25:20.661Z,1023.21
2018-07-08T12:26:48.201Z,1023.13
2018-07-08T12:28:15.924Z,1023.16
2018-07-08T12:29:43.604Z,1023.14
2018-07-08T12:31:11.212Z,1023.16
2018-07-08T12:32:38.875Z,1023.14
2018-07-08T12:34:06.618Z,1023.13
2018-07-08T12:35:34.118Z,1023.18
2018-07-08T12:37:01.314Z,1023.15
2018-07-08T12:38:29.027Z,1023.17
2018-07-08T12:39:56.671Z,1023.13
2018-07-08T12:41:24.393Z,1023.15
2018-07-08T12:42:52.014Z,1023.12
2018-07-08T12:44:19.616Z,1023.16
2018-07-08T12:45:47.230Z,1023.16
2018-07-08T12:47:14.790Z,1023.15
2018-07-08T12:48:42.445Z,1023.19
2018-07-08T12:50:06.534Z,1023.21
2018-07-08T12:51:37.024Z,1023.20
2018-07-08T12:53:04.581Z,1023.19
2018-07-08T12:54:32.339Z,1023.20
2018-07-08T12:55:59.903Z,1023.23
2018-07-08T12:57:27.585Z,1023.25
2018-07-08T12:58:55.345Z,1023.21
2018-07-08T13:00:22.901Z,1023.26
2018-07-08T13:01:50.591Z,1023.24
2018-07-08T13:03:18.124Z,1023.26
2018-07-08T13:04:45.762Z,1023.29
2018-07-08T13:06:13.428Z,1023.28
2018-07-08T13:07:40.973Z,1023.27
2018-07-08T13:09:08.579Z,1023.26
2018-07-08T13:10:35.910Z,1023.24
2018-07-08T13:12:03.595Z,1023.27
2018-07-08T13:13:31.307Z,1023.26
2018-07-08T13:14:58.761Z,1023.28
2018-07-08T13:16:26.279Z,1023.27
2018-07-08T13:17:53.868Z,1023.27
2018-07-08T13:19:21.558Z,1023.27
2018-07-08T13:20:49.199Z,1023.28
2018-07-08T13:22:16.888Z,1023.26
2018-07-08T13:23:44.491Z,1023.25
2018-07-08T13:25:12.253Z,1023.25
2018-07-08T13:26:39.917Z,1023.24
2018-07-08T13:28:07.496Z,1023.26
2018-07-08T13:29:35.046Z,1023.28
2018-07-08T13:31:02.660Z,1023.29
2018-07-08T13:32:30.513Z,1023.37
2018-07-08T13:33:57.814Z,1023.35
2018-07-08T13:35:25.307Z,1023.32
2018-07-08T13:36:53.018Z,1023.33
2018-07-08T13:38:20.554Z,1023.34
2018-07-08T13:39:48.320Z,1023.37
2018-07-08T13:41:15.787Z,1023.40
2018-07-08T13:42:43.455Z,1023.37
2018-07-08T13:44:11.005Z,1023.39
2018-07-08T13:45:38.612Z,1023.36
2018-07-08T13:47:05.900Z,1023.43
2018-07-08T13:48:33.563Z,1023.43
2018-07-08T13:50:01.062Z,1023.45
2018-07-08T13:51:28.780Z,1023.44
2018-07-08T13:52:56.499Z,1023.44
2018-07-08T13:54:24.145Z,1023.44
2018-07-08T13:55:51.724Z,1023.44
2018-07-08T13:57:19.370Z,1023.44
2018-07-08T13:58:46.859Z,1023.47
2018-07-08T14:00:14.436Z,1023.49
2018-07-08T14:01:41.885Z,1023.48
2018-07-08T14:03:09.410Z,1023.45
2018-07-08T14:04:36.987Z,1023.43
2018-07-08T14:06:04.691Z,1023.44
2018-07-08T14:07:32.219Z,1023.45
2018-07-08T14:08:59.928Z,1023.42
2018-07-08T14:10:27.476Z,1023.42
2018-07-08T14:11:54.923Z,1023.41
2018-07-08T14:13:22.443Z,1023.45
2018-07-08T14:14:50.222Z,1023.45
2018-07-08T14:16:17.858Z,1023.46
2018-07-08T14:17:45.349Z,1023.44
2018-07-08T14:19:12.817Z,1023.44
2018-07-08T14:20:40.339Z,1023.42
2018-07-08T14:22:07.896Z,1023.40
2018-07-08T14:23:35.779Z,1023.38
2018-07-08T14:25:03.411Z,1023.38
2018-07-08T14:26:30.932Z,1023.39
2018-07-08T14:27:58.605Z,1023.40
2018-07-08T14:29:26.201Z,1023.39
2018-07-08T14:30:53.721Z,1023.36
2018-07-08T14:32:21.396Z,1023.35
2018-07-08T14:33:48.861Z,1023.36
2018-07-08T14:35:16.397Z,1023.34
2018-07-08T14:36:44.006Z,1023.39
2018-07-08T14:38:11.558Z,1023.33
2018-07-08T14:39:39.253Z,1023.33
2018-07-08T14:41:06.689Z,1023.33
2018-07-08T14:42:34.362Z,1023.33
2018-07-08T14:44:01.903Z,1023.34
2018-07-08T14:45:29.272Z,1023.31
2018-07-08T14:46:56.944Z,1023.31
2018-07-08T14:48:24.548Z,1023.29
2018-07-08T14:49:51.709Z,1023.26
2018-07-08T14:51:19.489Z,1023.24
2018-07-08T14:52:47.243Z,1023.26
2018-07-08T14:54:14.746Z,1023.25
2018-07-08T14:55:42.301Z,1023.20
2018-07-08T14:57:09.768Z,1023.14
2018-07-08T14:58:37.305Z,1023.17
2018-07-08T15:00:04.737Z,1023.18
2018-07-08T15:01:32.297Z,1023.14
2018-07-08T15:02:59.920Z,1023.11
2018-07-08T15:04:27.457Z,1023.09
2018-07-08T15:05:54.093Z,1023.10
2018-07-08T15:07:21.454Z,1023.05
2018-07-08T15:08:49.136Z,1023.04
2018-07-08T15:10:16.643Z,1023.05
2018-07-08T15:11:44.086Z,1023.06
2018-07-08T15:13:11.600Z,1023.06
2018-07-08T15:14:39.207Z,1023.09
2018-07-08T15:16:06.489Z,1023.11
2018-07-08T15:17:34.112Z,1023.09
2018-07-08T15:19:02.671Z,1023.06
2018-07-08T15:20:29.229Z,1023.06
2018-07-08T15:21:56.674Z,1023.07
2018-07-08T15:23:24.217Z,1023.12
2018-07-08T15:24:51.695Z,1023.11
2018-07-08T15:26:19.236Z,1023.07
2018-07-08T15:27:46.804Z,1023.06
2018-07-08T15:29:14.403Z,1023.06
2018-07-08T15:30:41.571Z,1023.07
2018-07-08T15:32:09.317Z,1023.07
2018-07-08T15:33:37.107Z,1023.08
2018-07-08T15:35:04.712Z,1023.03
2018-07-08T15:36:32.222Z,1023.02
2018-07-08T15:37:59.617Z,1023.03
2018-07-08T15:39:27.533Z,1023.03
2018-07-08T15:40:55.108Z,1023.02
2018-07-08T15:42:22.636Z,1023.00
2018-07-08T15:43:50.255Z,1023.00
2018-07-08T15:45:17.638Z,1022.97
2018-07-08T15:46:44.961Z,1022.97
2018-07-08T15:48:12.291Z,1022.98
2018-07-08T15:49:39.714Z,1022.95
2018-07-08T15:51:07.187Z,1022.99
2018-07-08T15:52:34.735Z,1022.98
2018-07-08T15:54:02.382Z,1022.94
2018-07-08T15:55:29.840Z,1022.95
2018-07-08T15:56:57.243Z,1022.98
2018-07-08T15:58:24.591Z,1022.94
2018-07-08T15:59:52.169Z,1022.93
2018-07-08T16:01:19.889Z,1022.90
2018-07-08T16:02:47.269Z,1022.88
2018-07-08T16:04:14.998Z,1022.91
2018-07-08T16:05:42.388Z,1022.95
2018-07-08T16:07:10.028Z,1022.90
2018-07-08T16:08:37.449Z,1022.91
2018-07-08T16:10:05.257Z,1022.91
2018-07-08T16:11:32.982Z,1022.91
2018-07-08T16:13:00.743Z,1022.91
2018-07-08T16:14:28.319Z,1022.91
2018-07-08T16:15:56.022Z,1022.93
2018-07-08T16:17:23.570Z,1022.90
2018-07-08T16:18:51.477Z,1022.93
2018-07-08T16:20:18.978Z,1022.93
2018-07-08T16:21:46.472Z,1022.92
2018-07-08T16:23:13.824Z,1022.95
2018-07-08T16:24:40.916Z,1022.95
2018-07-08T16:26:08.373Z,1022.94
2018-07-08T16:27:35.995Z,1022.94
2018-07-08T16:29:03.514Z,1022.92
2018-07-08T16:30:31.238Z,1022.91
2018-07-08T16:31:58.580Z,1022.91
2018-07-08T16:33:26.348Z,1022.90
2018-07-08T16:34:53.878Z,1022.96
2018-07-08T16:36:21.282Z,1022.90
2018-07-08T16:37:49.170Z,1022.89
2018-07-08T16:39:16.608Z,1022.89
2018-07-08T16:40:43.987Z,1022.89
2018-07-08T16:42:11.574Z,1022.91
2018-07-08T16:43:39.169Z,1022.87
2018-07-08T16:45:06.757Z,1022.87
2018-07-08T16:46:34.137Z,1022.83
2018-07-08T16:48:01.613Z,1022.83
2018-07-08T16:49:29.046Z,1022.84
2018-07-08T16:50:56.473Z,1022.84
2018-07-08T16:52:24.181Z,1022.82
2018-07-08T16:53:51.711Z,1022.81
2018-07-08T16:55:19.233Z,1022.79
2018-07-08T16:56:46.768Z,1022.80
2018-07-08T16:58:14.170Z,1022.80
2018-07-08T16:59:41.583Z,1022.79
2018-07-08T17:01:09.100Z,1022.80
2018-07-08T17:02:36.779Z,1022.78
2018-07-08T17:04:04.330Z,1022.77
2018-07-08T17:05:31.693Z,1022.75
2018-07-08T17:06:59.240Z,1022.73
2018-07-08T17:08:26.851Z,1022.71
2018-07-08T17:09:54.677Z,1022.73
2018-07-08T17:11:21.962Z,1022.74
2018-07-08T17:12:49.429Z,1022.73
2018-07-08T17:14:17.184Z,1022.72
2018-07-08T17:15:44.557Z,1022.71
2018-07-08T17:17:12.076Z,1022.68
2018-07-08T17:18:39.716Z,1022.68
2018-07-08T17:20:07.376Z,1022.69
2018-07-08T17:21:34.938Z,1022.68
2018-07-08T17:23:02.789Z,1022.67
2018-07-08T17:24:30.429Z,1022.68
2018-07-08T17:25:57.893Z,1022.65
2018-07-08T17:27:25.287Z,1022.65
2018-07-08T17:28:52.932Z,1022.62
2018-07-08T17:30:20.671Z,1022.59
2018-07-08T17:31:48.118Z,1022.58
2018-07-08T17:33:15.704Z,1022.58
2018-07-08T17:34:42.952Z,1022.55
2018-07-08T17:36:10.684Z,1022.56
2018-07-08T17:37:38.231Z,1022.54